createdAt,value
2022-12-17T00:02:32.699Z,101510.28
2022-12-17T00:05:23.415Z,101515.84
2022-12-17T00:08:13.577Z,101518.47
2022-12-17T00:11:03.971Z,101522.72
2022-12-17T00:13:53.960Z,101529.66
2022-12-17T00:16:45.035Z,101523.47
2022-12-17T00:19:35.531Z,101522.97
2022-12-17T00:22:25.572Z,101522.97
2022-12-17T00:25:16.014Z,101528.78
2022-12-17T00:28:06.176Z,101530.50
2022-12-17T00:30:56.566Z,101537.50
2022-12-17T00:33:47.295Z,101542.00
2022-12-17T00:36:37.446Z,101546.03
2022-12-17T00:39:27.866Z,101542.69
2022-12-17T00:42:18.103Z,101542.00
2022-12-17T00:45:08.623Z,101552.09
2022-12-17T00:48:00.158Z,101552.69
2022-12-17T00:50:50.588Z,101552.69
2022-12-17T00:53:40.772Z,101554.47
2022-12-17T00:56:31.166Z,101554.59
2022-12-17T00:59:21.339Z,101560.53
2022-12-17T01:02:12.171Z,101564.56
2022-12-17T01:05:02.935Z,101574.19
2022-12-17T01:07:53.174Z,101566.97
2022-12-17T01:10:47.281Z,101583.25
2022-12-17T01:13:37.925Z,101588.47
2022-12-17T01:16:29.056Z,101584.53
2022-12-17T01:19:19.626Z,101587.16
2022-12-17T01:22:10.191Z,101582.63
2022-12-17T01:25:00.618Z,101593.56
2022-12-17T01:27:50.723Z,101586.09
2022-12-17T01:30:41.300Z,101588.81
2022-12-17T01:33:31.286Z,101590.72
2022-12-17T01:36:21.765Z,101588.09
2022-12-17T01:39:11.927Z,101588.00
2022-12-17T01:42:02.550Z,101601.66
2022-12-17T01:44:52.928Z,101593.09
2022-12-17T01:47:43.056Z,101598.56
2022-12-17T01:50:33.330Z,101596.91
2022-12-17T01:53:23.466Z,101601.66
2022-12-17T01:56:13.964Z,101614.84
2022-12-17T01:59:03.989Z,101610.69
2022-12-17T02:01:54.506Z,101602.84
2022-12-17T02:04:45.014Z,101604.94
2022-12-17T02:07:35.493Z,101605.19
2022-12-17T02:10:26.345Z,101610.19
2022-12-17T02:13:16.428Z,101606.84
2022-12-17T02:16:07.123Z,101611.25
2022-12-17T02:18:57.648Z,101605.19
2022-12-17T02:21:48.123Z,101610.06
2022-12-17T02:24:38.184Z,101600.09
2022-12-17T02:27:28.670Z,101610.06
2022-12-17T02:30:18.961Z,101603.28
2022-12-17T02:33:09.003Z,101610.53
2022-12-17T02:35:59.521Z,101614.81
2022-12-17T02:38:49.587Z,101616.69
2022-12-17T02:41:40.010Z,101614.78
2022-12-17T02:44:30.216Z,101626.31
2022-12-17T02:47:20.813Z,101626.31
2022-12-17T02:50:11.310Z,101622.69
2022-12-17T02:53:01.395Z,101625.78
2022-12-17T02:55:51.794Z,101629.47
2022-12-17T02:58:41.827Z,101634.91
2022-12-17T03:01:32.484Z,101638.00
2022-12-17T03:04:22.857Z,101641.56
2022-12-17T03:07:13.543Z,101641.47
2022-12-17T03:10:03.815Z,101638.84
2022-12-17T03:12:54.321Z,101642.22
2022-12-17T03:15:44.960Z,101645.03
2022-12-17T03:18:35.153Z,101644.31
2022-12-17T03:21:25.626Z,101648.59
2022-12-17T03:24:15.846Z,101647.88
2022-12-17T03:27:06.272Z,101652.09
2022-12-17T03:29:56.327Z,101647.50
2022-12-17T03:32:46.746Z,101652.47
2022-12-17T03:35:37.116Z,101661.03
2022-12-17T03:38:27.241Z,101661.88
2022-12-17T03:41:17.899Z,101660.94
2022-12-17T03:44:07.950Z,101659.59
2022-12-17T03:46:58.485Z,101673.38
2022-12-17T03:49:48.787Z,101681.94
2022-12-17T03:52:39.267Z,101682.38
2022-12-17T03:55:29.632Z,101687.63
2022-12-17T03:58:19.656Z,101686.56
2022-12-17T04:01:10.047Z,101692.50
2022-12-17T04:04:00.580Z,101692.75
2022-12-17T04:06:51.085Z,101693.00
2022-12-17T04:09:41.060Z,101698.22
2022-12-17T04:12:31.699Z,101696.50
2022-12-17T04:15:21.841Z,101699.63
2022-12-17T04:18:12.624Z,101702.13
2022-12-17T04:21:03.183Z,101708.16
2022-12-17T04:23:53.652Z,101713.28
2022-12-17T04:26:43.760Z,101718.00
2022-12-17T04:29:34.092Z,101414.75
2022-12-17T04:32:24.291Z,101726.00
2022-12-17T04:35:14.715Z,101724.91
2022-12-17T04:38:04.903Z,101723.97
2022-12-17T04:40:55.330Z,101722.91
2022-12-17T04:43:45.359Z,101722.19
2022-12-17T04:46:35.765Z,101723.72
2022-12-17T04:49:26.305Z,101729.06
2022-12-17T04:52:16.712Z,101735.41
2022-12-17T04:55:06.862Z,101737.41
2022-12-17T04:57:57.185Z,101743.34
2022-12-17T05:00:47.360Z,101732.91
2022-12-17T05:03:38.111Z,101731.75
2022-12-17T05:06:28.714Z,101741.06
2022-12-17T05:09:19.053Z,101744.00
2022-12-17T05:12:09.126Z,101742.56
2022-12-17T05:14:59.694Z,101751.97
2022-12-17T05:17:49.809Z,101748.25
2022-12-17T05:20:40.274Z,101747.84
2022-12-17T05:23:30.367Z,101742.84
2022-12-17T05:26:20.819Z,101756.63
2022-12-17T05:29:15.646Z,101758.63
2022-12-17T05:32:06.306Z,101760.06
2022-12-17T05:34:57.074Z,101758.53
2022-12-17T05:37:47.731Z,101770.84
2022-12-17T05:40:38.225Z,101768.41
2022-12-17T05:43:28.756Z,101771.31
2022-12-17T05:46:19.329Z,101772.84
2022-12-17T05:49:09.806Z,101779.63
2022-12-17T05:52:00.244Z,101786.03
2022-12-17T05:54:50.462Z,101799.59
2022-12-17T05:57:40.978Z,101802.31
2022-12-17T06:00:31.131Z,101810.47
2022-12-17T06:03:21.648Z,101805.66
2022-12-17T06:06:12.257Z,101815.09
2022-12-17T06:09:02.306Z,101810.69
2022-12-17T06:11:53.936Z,101810.53
2022-12-17T06:14:45.619Z,101821.16
2022-12-17T06:17:35.993Z,101821.16
2022-12-17T06:20:25.988Z,101829.03
2022-12-17T06:23:16.483Z,101831.78
2022-12-17T06:26:06.774Z,101822.47
2022-12-17T06:28:57.010Z,101832.81
2022-12-17T06:31:47.571Z,101841.38
2022-12-17T06:34:37.970Z,101834.81
2022-12-17T06:37:28.440Z,101843.50
2022-12-17T06:40:18.553Z,101842.31
2022-12-17T06:43:08.632Z,101842.31
2022-12-17T06:45:58.590Z,101849.44
2022-12-17T06:49:08.552Z,101853.09
2022-12-17T06:51:58.715Z,101858.88
2022-12-17T06:54:48.757Z,101866.41
2022-12-17T06:57:42.460Z,101628.63
2022-12-17T07:00:34.333Z,101879.22
2022-12-17T07:03:25.069Z,101879.03
2022-12-17T07:06:15.817Z,101889.56
2022-12-17T07:09:05.865Z,101897.41
2022-12-17T07:11:56.432Z,101900.00
2022-12-17T07:14:46.794Z,101904.41
2022-12-17T07:17:37.340Z,101912.56
2022-12-17T07:20:27.553Z,101916.50
2022-12-17T07:23:18.259Z,101915.38
2022-12-17T07:26:08.369Z,101926.25
2022-12-17T07:28:59.070Z,101931.28
2022-12-17T07:31:51.230Z,101928.66
2022-12-17T07:34:41.339Z,101930.25
2022-12-17T07:37:31.882Z,101934.91
2022-12-17T07:40:22.116Z,101931.81
2022-12-17T07:43:12.884Z,101939.09
2022-12-17T07:46:03.176Z,101940.66
2022-12-17T07:48:54.119Z,101944.53
2022-12-17T07:51:44.518Z,101951.41
2022-12-17T07:54:34.706Z,101960.63
2022-12-17T07:57:25.109Z,101962.78
2022-12-17T08:00:15.546Z,101976.78
2022-12-17T08:03:06.143Z,101975.88
2022-12-17T08:05:56.486Z,101982.03
2022-12-17T08:08:46.980Z,101978.25
2022-12-17T08:11:37.415Z,101979.22
2022-12-17T08:14:27.645Z,101986.31
2022-12-17T08:17:17.855Z,101983.28
2022-12-17T08:20:08.364Z,101984.13
2022-12-17T08:22:58.841Z,101983.69
2022-12-17T08:25:49.084Z,101978.16
2022-12-17T08:28:50.414Z,101981.25
2022-12-17T08:31:41.444Z,101977.94
2022-12-17T08:34:31.738Z,101992.00
2022-12-17T08:37:22.174Z,101988.66
2022-12-17T08:40:12.196Z,102002.69
2022-12-17T08:43:02.340Z,102000.47
2022-12-17T08:45:52.634Z,102001.00
2022-12-17T08:48:43.360Z,102001.53
2022-12-17T08:51:33.424Z,102003.91
2022-12-17T08:54:23.896Z,101996.06
2022-12-17T08:57:30.500Z,102006.63
2022-12-17T09:00:21.811Z,102011.88
2022-12-17T09:03:12.744Z,102022.00
2022-12-17T09:06:03.213Z,102020.66
2022-12-17T09:08:53.739Z,102019.72
2022-12-17T09:11:43.903Z,102021.59
2022-12-17T09:14:34.701Z,102026.72
2022-12-17T09:17:25.364Z,102024.94
2022-12-17T09:20:15.599Z,102036.88
2022-12-17T09:23:06.086Z,102033.28
2022-12-17T09:25:58.197Z,102032.13
2022-12-17T09:28:49.155Z,102030.41
2022-12-17T09:31:39.118Z,102039.81
2022-12-17T09:34:29.513Z,102038.03
2022-12-17T09:37:20.042Z,102044.41
2022-12-17T09:40:10.180Z,102038.75
2022-12-17T09:43:00.630Z,102046.50
2022-12-17T09:45:50.782Z,102032.78
2022-12-17T09:48:41.413Z,102035.50
2022-12-17T09:51:31.584Z,102044.88
2022-12-17T09:54:22.343Z,102040.25
2022-12-17T09:57:12.875Z,102049.06
2022-12-17T10:00:02.932Z,102044.19
2022-12-17T10:02:53.577Z,102046.94
2022-12-17T10:05:43.917Z,102050.78
2022-12-17T10:08:34.315Z,102053.09
2022-12-17T10:11:24.467Z,102051.34
2022-12-17T10:14:15.030Z,102055.56
2022-12-17T10:17:11.453Z,102065.13
2022-12-17T10:20:02.342Z,102060.81
2022-12-17T10:22:52.870Z,102068.44
2022-12-17T10:25:43.040Z,102072.81
2022-12-17T10:28:33.536Z,102077.16
2022-12-17T10:31:23.804Z,102075.59
2022-12-17T10:34:14.477Z,102078.06
2022-12-17T10:37:04.693Z,102088.28
2022-12-17T10:39:55.306Z,102081.00
2022-12-17T10:42:45.537Z,102079.63
2022-12-17T10:45:35.657Z,102081.09
2022-12-17T10:48:26.117Z,102075.88
2022-12-17T10:51:16.177Z,102084.00
2022-12-17T10:54:06.691Z,102091.47
2022-12-17T10:56:57.023Z,102085.91
2022-12-17T10:59:47.351Z,102093.00
2022-12-17T11:02:37.614Z,102103.53
2022-12-17T11:05:28.343Z,101911.84
2022-12-17T11:08:18.498Z,102096.41
2022-12-17T11:11:08.523Z,102102.59
2022-12-17T11:13:58.952Z,102100.66
2022-12-17T11:16:48.914Z,102098.38
2022-12-17T11:19:39.338Z,102110.19
2022-12-17T11:22:29.795Z,102096.66
2022-12-17T11:25:19.897Z,102101.28
2022-12-17T11:28:10.242Z,102098.53
2022-12-17T11:31:11.191Z,102103.44
2022-12-17T11:34:01.647Z,102112.69
2022-12-17T11:36:51.794Z,102120.50
2022-12-17T11:39:42.231Z,102119.47
2022-12-17T11:42:32.626Z,102121.47
2022-12-17T11:45:22.860Z,102123.00
2022-12-17T11:48:13.556Z,102128.44
2022-12-17T11:51:03.893Z,102126.50
2022-12-17T11:53:54.566Z,102126.16
2022-12-17T11:56:44.712Z,102140.47
2022-12-17T11:59:35.156Z,102133.56
2022-12-17T12:02:25.348Z,102135.25
2022-12-17T12:05:15.992Z,102131.91
2022-12-17T12:08:06.316Z,102128.28
2022-12-17T12:10:56.439Z,102129.41
2022-12-17T12:13:46.928Z,102134.41
2022-12-17T12:16:42.043Z,102125.53
2022-12-17T12:19:34.095Z,102123.03
2022-12-17T12:22:30.346Z,102132.00
2022-12-17T12:25:21.135Z,102131.91
2022-12-17T12:28:11.474Z,102141.09
2022-12-17T12:31:01.731Z,102141.22
2022-12-17T12:33:52.253Z,102146.56
2022-12-17T12:36:42.443Z,102154.00
2022-12-17T12:39:32.964Z,102163.50
2022-12-17T12:42:23.100Z,102162.00
2022-12-17T12:45:13.341Z,102162.53
2022-12-17T12:48:03.942Z,102164.66
2022-12-17T12:50:54.141Z,102164.09
2022-12-17T12:53:45.104Z,102172.06
2022-12-17T12:56:45.814Z,102177.38
2022-12-17T12:59:36.274Z,102178.09
2022-12-17T13:02:26.972Z,102179.50
2022-12-17T13:05:17.778Z,102176.31
2022-12-17T13:07:49.272Z,102187.03
2022-12-17T13:10:21.098Z,102185.09
2022-12-17T13:12:52.861Z,102188.16
2022-12-17T13:15:26.845Z,102188.25
2022-12-17T13:18:02.089Z,102177.59
2022-12-17T13:20:33.802Z,102184.69
2022-12-17T13:23:05.407Z,102175.09
2022-12-17T13:25:36.957Z,102182.81
2022-12-17T13:28:08.509Z,102182.81
2022-12-17T13:30:40.126Z,102211.25
2022-12-17T13:33:12.026Z,102201.75
2022-12-17T13:35:43.541Z,102200.28
2022-12-17T13:38:15.439Z,102199.56
2022-12-17T13:40:47.007Z,102201.59
2022-12-17T13:43:18.645Z,102208.69
2022-12-17T13:45:50.239Z,102201.28
2022-12-17T13:48:22.130Z,102214.28
2022-12-17T13:50:53.676Z,102211.84
2022-12-17T13:53:25.536Z,102219.81
2022-12-17T13:55:58.490Z,102223.38
2022-12-17T13:58:30.273Z,102222.28
2022-12-17T14:01:01.801Z,102237.78
2022-12-17T14:03:57.150Z,102238.75
2022-12-17T14:06:25.063Z,102227.97
2022-12-17T14:08:57.141Z,102238.47
2022-12-17T14:11:47.463Z,102234.09
2022-12-17T14:14:19.428Z,102252.19
2022-12-17T14:16:51.176Z,102248.38
2022-12-17T14:19:23.036Z,102244.34
2022-12-17T14:21:54.569Z,102257.34
2022-12-17T14:24:29.669Z,102259.25
2022-12-17T14:27:01.343Z,102249.34
2022-12-17T14:29:33.381Z,102251.22
2022-12-17T14:32:04.899Z,102254.22
2022-12-17T14:34:36.438Z,102249.16
2022-12-17T14:37:07.907Z,102249.16
2022-12-17T14:39:39.451Z,102247.22
2022-12-17T14:42:26.427Z,102254.22
2022-12-17T14:44:58.558Z,102256.28
2022-12-17T14:47:30.083Z,102261.53
2022-12-17T14:50:01.639Z,102262.84
2022-12-17T14:52:33.110Z,102266.16
2022-12-17T14:55:04.622Z,102279.75
2022-12-17T14:57:36.122Z,102278.47
2022-12-17T15:00:07.626Z,102284.88
2022-12-17T15:02:39.354Z,102279.75
2022-12-17T15:05:11.036Z,102279.22
2022-12-17T15:07:42.534Z,102284.63
2022-12-17T15:10:14.322Z,102288.56
2022-12-17T15:12:45.850Z,102289.28
2022-12-17T15:15:17.401Z,102291.72
2022-12-17T15:17:48.916Z,102288.56
2022-12-17T15:20:20.900Z,102289.50
2022-12-17T15:22:52.396Z,102287.34
2022-12-17T15:25:24.326Z,102293.50
2022-12-17T15:27:55.803Z,102300.56
2022-12-17T15:30:27.873Z,102312.47
2022-12-17T15:32:59.439Z,102317.75
2022-12-17T15:35:31.172Z,102318.66
2022-12-17T15:38:02.629Z,102318.75
2022-12-17T15:40:34.117Z,102328.63
2022-12-17T15:43:11.705Z,102330.88
2022-12-17T15:45:43.650Z,102334.59
2022-12-17T15:48:15.178Z,102333.50
2022-12-17T15:50:46.797Z,102340.81
2022-12-17T15:53:18.259Z,102336.91
2022-12-17T15:55:49.943Z,102339.28
2022-12-17T15:58:21.498Z,102334.06
2022-12-17T16:00:53.232Z,102335.81
2022-12-17T16:03:24.777Z,102336.00
2022-12-17T16:05:56.839Z,102336.75
2022-12-17T16:08:28.318Z,102337.22
2022-12-17T16:10:59.799Z,102344.47
2022-12-17T16:13:31.260Z,102334.88
2022-12-17T16:16:04.321Z,102345.28
2022-12-17T16:18:36.403Z,102344.72
2022-12-17T16:21:08.559Z,102336.09
2022-12-17T16:23:40.059Z,102344.84
2022-12-17T16:26:11.616Z,102346.34
2022-12-17T16:28:43.094Z,102346.69
2022-12-17T16:31:14.660Z,102349.56
2022-12-17T16:33:48.094Z,102351.66
2022-12-17T16:36:19.918Z,102346.88
2022-12-17T16:38:51.787Z,102351.94
2022-12-17T16:41:23.773Z,102359.28
2022-12-17T16:43:55.440Z,102356.41
2022-12-17T16:46:27.231Z,102350.25
2022-12-17T16:48:59.184Z,102361.53
2022-12-17T16:51:30.743Z,102372.47
2022-12-17T16:54:02.575Z,102367.94
2022-12-17T16:56:39.661Z,102372.13
2022-12-17T16:59:12.334Z,102367.41
2022-12-17T17:01:44.889Z,102366.41
2022-12-17T17:04:16.915Z,102361.69
2022-12-17T17:06:48.394Z,102373.28
2022-12-17T17:09:20.152Z,102374.31
2022-12-17T17:11:52.436Z,102371.53
2022-12-17T17:14:24.468Z,102373.38
2022-12-17T17:16:56.064Z,102374.38
2022-12-17T17:19:27.844Z,102373.97
2022-12-17T17:21:59.372Z,102371.00
2022-12-17T17:24:31.290Z,102373.63
2022-12-17T17:27:02.829Z,102380.19
2022-12-17T17:29:34.605Z,102383.22
2022-12-17T17:32:11.045Z,102391.84
2022-12-17T17:34:43.552Z,102390.53
2022-12-17T17:37:15.165Z,102394.97
2022-12-17T17:39:46.851Z,102406.22
2022-12-17T17:42:18.324Z,102402.69
2022-12-17T17:44:50.264Z,102410.59
2022-12-17T17:47:21.786Z,102412.44
2022-12-17T17:49:53.640Z,102413.13
2022-12-17T17:52:25.180Z,102410.94
2022-12-17T17:54:56.959Z,102408.66
2022-12-17T17:57:28.435Z,102408.09
2022-12-17T18:00:00.298Z,102405.31
2022-12-17T18:02:31.923Z,102412.94
2022-12-17T18:05:04.060Z,102415.56
2022-12-17T18:07:35.518Z,102409.91
2022-12-17T18:10:07.099Z,102413.19
2022-12-17T18:12:57.155Z,102415.50
2022-12-17T18:15:28.662Z,102420.09
2022-12-17T18:18:00.129Z,102424.47
2022-12-17T18:20:31.992Z,102430.25
2022-12-17T18:23:03.459Z,102433.63
2022-12-17T18:25:37.642Z,102438.56
2022-12-17T18:28:09.504Z,102431.09
2022-12-17T18:30:41.557Z,102423.34
2022-12-17T18:33:13.030Z,102431.41
2022-12-17T18:35:44.710Z,102431.81
2022-12-17T18:38:16.721Z,102439.47
2022-12-17T18:40:48.548Z,102437.53
2022-12-17T18:43:26.056Z,102438.22
2022-12-17T18:45:57.702Z,102446.19
2022-12-17T18:48:29.302Z,102450.88
2022-12-17T18:51:02.829Z,102455.84
2022-12-17T18:53:34.505Z,102454.78
2022-12-17T18:56:06.633Z,102457.22
2022-12-17T18:58:38.441Z,102458.16
2022-12-17T19:01:10.387Z,102459.38
2022-12-17T19:03:41.908Z,102465.25
2022-12-17T19:06:13.797Z,102468.84
2022-12-17T19:08:45.342Z,102479.09
2022-12-17T19:11:16.851Z,102474.28
2022-12-17T19:13:48.402Z,102473.59
2022-12-17T19:16:20.261Z,102474.28
2022-12-17T19:18:51.824Z,102474.97
2022-12-17T19:21:23.627Z,102483.78
2022-12-17T19:23:55.091Z,102489.50
2022-12-17T19:26:27.027Z,102485.72
2022-12-17T19:28:58.561Z,102491.47
2022-12-17T19:31:31.090Z,102493.16
2022-12-17T19:34:02.716Z,102495.91
2022-12-17T19:36:34.545Z,102492.06
2022-12-17T19:39:06.115Z,102493.03
2022-12-17T19:41:37.609Z,102500.84
2022-12-17T19:44:09.245Z,102503.22
2022-12-17T19:46:41.172Z,102507.72
2022-12-17T19:49:12.640Z,102526.31
2022-12-17T19:51:47.208Z,102510.16
2022-12-17T19:54:18.731Z,102511.09
2022-12-17T19:56:50.721Z,102511.41
2022-12-17T19:59:22.273Z,102519.81
2022-12-17T20:01:54.223Z,102520.41
2022-12-17T20:04:25.862Z,102519.81
2022-12-17T20:06:57.730Z,102520.66
2022-12-17T20:09:29.282Z,102524.09
2022-12-17T20:12:00.841Z,102530.84
2022-12-17T20:14:34.210Z,102526.69
2022-12-17T20:17:05.842Z,102534.91
2022-12-17T20:19:37.530Z,102534.44
2022-12-17T20:22:09.090Z,102535.38
2022-12-17T20:24:40.609Z,102534.78
2022-12-17T20:27:12.226Z,102532.97
2022-12-17T20:29:43.824Z,102528.91
2022-12-17T20:32:19.721Z,102541.19
2022-12-17T20:34:51.639Z,102536.16
2022-12-17T20:37:23.174Z,102539.22
2022-12-17T20:39:55.962Z,102535.22
2022-12-17T20:42:27.508Z,102537.75
2022-12-17T20:44:59.450Z,102545.19
2022-12-17T20:47:31.006Z,102549.84
2022-12-17T20:50:02.937Z,102547.88
2022-12-17T20:52:34.482Z,102548.16
2022-12-17T20:55:06.007Z,102548.56
2022-12-17T20:57:37.640Z,102557.91
2022-12-17T21:00:09.193Z,102563.78
2022-12-17T21:02:41.006Z,102557.91
2022-12-17T21:05:13.106Z,102545.91
2022-12-17T21:07:44.788Z,102239.31
2022-12-17T21:10:16.830Z,102557.00
2022-12-17T21:13:07.256Z,102561.06
2022-12-17T21:15:39.090Z,102557.94
2022-12-17T21:18:10.662Z,102563.91
2022-12-17T21:20:42.567Z,102562.47
2022-12-17T21:23:14.252Z,102561.97
2022-12-17T21:25:45.828Z,102563.31
2022-12-17T21:28:24.871Z,102561.97
2022-12-17T21:30:56.808Z,102571.47
2022-12-17T21:33:28.412Z,102572.44
2022-12-17T21:36:00.775Z,102577.06
2022-12-17T21:38:32.333Z,102572.94
2022-12-17T21:41:03.989Z,102584.44
2022-12-17T21:43:36.883Z,102588.25
2022-12-17T21:46:08.616Z,102593.66
2022-12-17T21:48:42.115Z,102590.22
2022-12-17T21:51:14.378Z,102586.63
2022-12-17T21:53:46.147Z,102591.44
2022-12-17T21:56:18.115Z,102589.75
2022-12-17T21:58:49.926Z,102589.22
2022-12-17T22:01:25.748Z,102593.56
2022-12-17T22:03:57.385Z,102604.97
2022-12-17T22:06:33.854Z,102605.31
2022-12-17T22:09:33.446Z,102615.22
2022-12-17T22:12:33.402Z,102610.44
2022-12-17T22:15:04.927Z,102613.16
2022-12-17T22:17:37.187Z,102615.41
2022-12-17T22:20:08.995Z,102617.69
2022-12-17T22:22:41.134Z,102625.00
2022-12-17T22:25:12.837Z,102618.97
2022-12-17T22:27:44.842Z,102622.19
2022-12-17T22:30:35.554Z,102618.56
2022-12-17T22:33:13.800Z,102628.72
2022-12-17T22:37:02.963Z,102621.72
2022-12-17T22:41:59.584Z,102625.41
2022-12-17T22:44:36.511Z,102632.53
2022-12-17T22:44:54.092Z,102630.84
2022-12-17T22:47:27.755Z,102638.81
2022-12-17T22:49:59.281Z,102643.00
2022-12-17T22:52:31.532Z,102656.66
2022-12-17T22:55:03.396Z,102658.19
2022-12-17T22:57:38.233Z,102654.94
2022-12-17T23:00:10.205Z,102662.84
2022-12-17T23:02:42.115Z,102660.31
2022-12-17T23:05:14.498Z,102662.78
2022-12-17T23:07:46.228Z,102671.19
2022-12-17T23:10:17.792Z,102670.75
2022-12-17T23:12:53.176Z,102669.34
2022-12-17T23:15:24.678Z,102666.63
2022-12-17T23:17:56.308Z,102671.94
2022-12-17T23:20:27.885Z,102673.88
2022-12-17T23:22:59.723Z,102672.38
2022-12-17T23:25:31.347Z,102670.00
2022-12-17T23:28:03.188Z,102673.63
2022-12-17T23:30:35.070Z,102674.22
2022-12-17T23:33:06.582Z,102672.47
2022-12-17T23:35:38.346Z,102674.59
2022-12-17T23:38:09.900Z,102672.25
2022-12-17T23:40:41.773Z,102668.13
2022-12-17T23:43:17.925Z,102670.19
2022-12-17T23:45:50.058Z,102677.25
2022-12-17T23:48:25.731Z,102677.06
2022-12-17T23:50:57.689Z,102668.59
2022-12-17T23:53:29.244Z,102677.91
2022-12-17T23:56:01.250Z,102683.22
2022-12-17T23:58:32.813Z,102688.44
